San Miguel de Allende, Mexico

1:35 PM CST on February 21, 2017 (GMT -0600)
Durango | | Change Station

Elev 6093 ft 24.13 °N, 104.53 °W | Updated 53 minutes ago

Clear
Clear
59 °F
Feels Like 59 °F
N
6
Wind Variable Wind from ENE

Today
High -- | Low -- °F
--% Chance of Precip.
Yesterday
High -- | Low -- °F
Precip. -- in
Pressure 30.44 in
Visibility 14.0 miles
Clouds Clear
Dew Point 16 °F
Humidity 19%
Rainfall 0.00 in
Snow Depth Not available.
7:29 AM 6:59 PM
Waning Crescent, 23% visible
METAR MMDO 211842Z 07005KT 14SM SKC 15/M09 A3044 RMK HZY
Pressure 30.44 in
Visibility 14.0 miles
Clouds Clear
Dew Point 16 °F
Humidity 19%
Rainfall 0.00 in
Snow Depth Not available.
7:29 AM 6:59 PM
Waning Crescent, 23% visible
METAR MMDO 211842Z 07005KT 14SM SKC 15/M09 A3044 RMK HZY

Get Your Daily Forecast Email!

Thanks for signing up!

Be on the lookout for a verification email in your inbox.

You'll start receiving the daily forecast at 8 AM.

×

10-Day Weather Forecast

No radar image for this location.
×

Almanac

Astronomy

Feb. 21, 2017 Rise Set
Actual Time
Civil Twilight
Nautical Twilight
Astronomical Twilight
Moon
Length of Visible Light
Length of Day
Tomorrow will be .
, % of the Moon is Illuminated

Today's Extremes

Country Highs Country Lows

Community

WunderPhotos

Upload Photos

1,962,540 photos uploaded!

WunderBlog® & News

Nearby

Air Quality

  Air Quality AQ Index Pollutant
Not available.

Snow Depth

Station Depth Elevation

Earthquake Activity

City Distance Mag. Time & Date
Minimum magnitude displayed is 2.5.

Coastal Water Temperatures

Place Temperature

Stations

Nearby Weather Stations

Station Location Temp. Windchill Dew Point Humidity Wind Precip. Elev Updated Type